Wednesday, December 19, 2018, 11:31 AM EST
Back to Local

KDSV, Dansville Municipal Airport

Location: Dansville, NY, United States Lat: 42.567
Local Time: 11:31 AM EST (16:31 GMT) Lon: -77.717
Time Zone: US/Eastern Elev: 662 ft

Show me the last for .
Show Decoded

2018-12-19 10:54 METAR KDSV 191554Z AUTO 14007KT 10SM CLR 03/M06 A3005 RMK AO2 SLP192 T00331056 =
2018-12-19 09:54 METAR KDSV 191454Z AUTO 14007KT 10SM CLR 00/M06 A3006 RMK AO2 SLP199 T00001056
                 56004 =
2018-12-19 08:54 METAR KDSV 191354Z AUTO 12008KT 10SM CLR M03/M07 A3007 RMK AO2 SLP201 T10281072
                 =
2018-12-19 07:54 METAR KDSV 191254Z AUTO 15009KT 10SM CLR M05/M08 A3006 RMK AO2 SLP199 T10501083
                 =
2018-12-19 06:54 METAR KDSV 191154Z AUTO 15009KT 10SM CLR M06/M09 A3008 RMK AO2 SLP204 T10611089
                 11056 21067 56004 =
2018-12-19 05:54 METAR KDSV 191054Z AUTO 14007KT 10SM CLR M06/M09 A3008 RMK AO2 SLP206 T10561089
                 =
2018-12-19 04:54 METAR KDSV 190954Z AUTO 15009KT 10SM CLR M06/M09 A3008 RMK AO2 SLP203 T10611089
                 =
2018-12-19 03:54 METAR KDSV 190854Z AUTO 13008KT 10SM CLR M06/M09 A3009 RMK AO2 SLP207 T10611094
                 58010 =
2018-12-19 02:54 METAR KDSV 190754Z AUTO 13007KT 10SM CLR M06/M09 A3011 RMK AO2 SLP213 T10611094
                 =
2018-12-19 01:54 METAR KDSV 190654Z AUTO 14010KT 10SM CLR M06/M09 A3011 RMK AO2 SLP216 T10611094
                 =
2018-12-19 00:54 METAR KDSV 190554Z AUTO 12006KT 10SM CLR M07/M09 A3012 RMK AO2 SLP219 T10671094
                 11050 21072 56016 =
2018-12-18 23:54 METAR KDSV 190454Z AUTO 14006KT 10SM CLR M07/M09 A3014 RMK AO2 SLP224 T10671094
                 410111072 =
2018-12-18 22:54 METAR KDSV 190354Z AUTO 16005KT 10SM CLR M06/M09 A3015 RMK AO2 SLP228 T10611094
                 =
2018-12-18 21:54 METAR KDSV 190254Z AUTO 00000KT 10SM CLR M07/M09 A3017 RMK AO2 SLP235 T10671094
                 58004 =
2018-12-18 20:54 METAR KDSV 190154Z AUTO 00000KT 10SM CLR M06/M09 A3018 RMK AO2 SLP239 T10611094
                 =
2018-12-18 19:54 METAR KDSV 190054Z AUTO 18003KT 10SM CLR M06/M09 A3018 RMK AO2 SLP240 T10561089
                 =
2018-12-18 18:54 METAR KDSV 182354Z AUTO 00000KT 10SM CLR M05/M09 A3018 RMK AO2 SLP238 T10501089
                 11011 21067 50003 =
2018-12-18 17:54 METAR KDSV 182254Z AUTO 00000KT 10SM CLR M03/M09 A3019 RMK AO2 SLP240 T10331089
                 =
2018-12-18 16:54 METAR KDSV 182154Z AUTO 00000KT 10SM CLR M02/M09 A3018 RMK AO2 SLP237 T10221089
                 =
2018-12-18 15:54 METAR KDSV 182054Z AUTO 34005KT 10SM CLR M02/M09 A3017 RMK AO2 SLP234 T10171094
                 55004 =
2018-12-18 14:54 METAR KDSV 181954Z AUTO 33007KT 10SM FEW034 M02/M09 A3017 RMK AO2 SLP233
                 T10171089 =
2018-12-18 13:54 METAR KDSV 181854Z AUTO 34008KT 10SM BKN030 M03/M09 A3016 RMK AO2 SLP229
                 T10281094 =
2018-12-18 12:54 METAR KDSV 181754Z AUTO 35009KT 10SM OVC030 M03/M09 A3018 RMK AO2 SLP238 60000
                 T10281094 11028 21039 58007 =
2018-12-18 12:21 METAR KDSV 181721Z AUTO 34010KT 10SM OVC030 M03/M09 A3019 RMK AO2 T10331094 =
2018-12-18 11:54 METAR KDSV 181654Z AUTO 33014KT 10SM OVC028 M03/M10 A3019 RMK AO2 SLP242
                 T10331100 =

Support USWX by starting your Amazon purchase here.